sensor_id;sensor_type;location;lat;lon;timestamp;P1;durP1;ratioP1;P2;durP2;ratioP2
45420;SDS011;55462;47.042;8.292;2023-04-23T00:01:31;7.28;;;6.50;;
45420;SDS011;55462;47.042;8.292;2023-04-23T00:03:59;7.20;;;5.97;;
45420;SDS011;55462;47.042;8.292;2023-04-23T00:06:24;8.55;;;7.28;;
45420;SDS011;55462;47.042;8.292;2023-04-23T00:08:54;7.70;;;6.68;;
45420;SDS011;55462;47.042;8.292;2023-04-23T00:11:21;6.40;;;5.80;;
45420;SDS011;55462;47.042;8.292;2023-04-23T00:13:46;8.90;;;6.43;;
45420;SDS011;55462;47.042;8.292;2023-04-23T00:16:13;6.55;;;6.05;;
45420;SDS011;55462;47.042;8.292;2023-04-23T00:18:39;7.35;;;6.65;;
45420;SDS011;55462;47.042;8.292;2023-04-23T00:21:05;8.05;;;7.25;;
45420;SDS011;55462;47.042;8.292;2023-04-23T00:23:30;6.88;;;6.28;;
45420;SDS011;55462;47.042;8.292;2023-04-23T00:25:55;7.68;;;6.57;;
45420;SDS011;55462;47.042;8.292;2023-04-23T00:28:21;7.50;;;6.90;;
45420;SDS011;55462;47.042;8.292;2023-04-23T00:30:46;8.10;;;7.40;;
45420;SDS011;55462;47.042;8.292;2023-04-23T00:33:11;7.85;;;7.15;;
45420;SDS011;55462;47.042;8.292;2023-04-23T00:35:37;8.48;;;7.70;;
45420;SDS011;55462;47.042;8.292;2023-04-23T00:38:02;8.05;;;7.25;;
45420;SDS011;55462;47.042;8.292;2023-04-23T00:40:27;8.70;;;7.72;;
45420;SDS011;55462;47.042;8.292;2023-04-23T00:42:53;8.32;;;7.63;;
45420;SDS011;55462;47.042;8.292;2023-04-23T00:45:19;8.68;;;7.45;;
45420;SDS011;55462;47.042;8.292;2023-04-23T00:47:45;7.85;;;7.13;;
45420;SDS011;55462;47.042;8.292;2023-04-23T00:50:10;7.90;;;7.18;;
45420;SDS011;55462;47.042;8.292;2023-04-23T00:52:37;7.45;;;6.75;;
45420;SDS011;55462;47.042;8.292;2023-04-23T00:55:03;8.48;;;7.68;;
45420;SDS011;55462;47.042;8.292;2023-04-23T00:57:28;8.07;;;7.35;;
45420;SDS011;55462;47.042;8.292;2023-04-23T00:59:54;7.57;;;6.75;;
45420;SDS011;55462;47.042;8.292;2023-04-23T01:02:22;7.20;;;6.63;;
45420;SDS011;55462;47.042;8.292;2023-04-23T01:04:48;9.07;;;7.57;;
45420;SDS011;55462;47.042;8.292;2023-04-23T01:07:18;8.40;;;7.70;;
45420;SDS011;55462;47.042;8.292;2023-04-23T01:09:44;14.05;;;7.90;;
45420;SDS011;55462;47.042;8.292;2023-04-23T01:12:09;8.55;;;7.75;;
45420;SDS011;55462;47.042;8.292;2023-04-23T01:14:35;7.40;;;6.63;;
45420;SDS011;55462;47.042;8.292;2023-04-23T01:17:01;9.50;;;7.38;;
45420;SDS011;55462;47.042;8.292;2023-04-23T01:19:27;7.50;;;6.88;;
45420;SDS011;55462;47.042;8.292;2023-04-23T01:21:52;6.72;;;6.13;;
45420;SDS011;55462;47.042;8.292;2023-04-23T01:24:18;10.30;;;7.38;;
45420;SDS011;55462;47.042;8.292;2023-04-23T01:26:43;6.68;;;6.07;;
45420;SDS011;55462;47.042;8.292;2023-04-23T01:29:08;8.20;;;7.38;;
45420;SDS011;55462;47.042;8.292;2023-04-23T01:31:34;8.50;;;7.80;;
45420;SDS011;55462;47.042;8.292;2023-04-23T01:33:59;8.07;;;7.32;;
45420;SDS011;55462;47.042;8.292;2023-04-23T01:36:25;8.25;;;7.32;;
45420;SDS011;55462;47.042;8.292;2023-04-23T01:38:51;10.57;;;8.05;;
45420;SDS011;55462;47.042;8.292;2023-04-23T01:41:17;9.15;;;8.25;;
45420;SDS011;55462;47.042;8.292;2023-04-23T01:43:43;8.95;;;7.63;;
45420;SDS011;55462;47.042;8.292;2023-04-23T01:46:09;7.82;;;7.22;;
45420;SDS011;55462;47.042;8.292;2023-04-23T01:48:35;13.25;;;8.65;;
45420;SDS011;55462;47.042;8.292;2023-04-23T01:51:01;8.57;;;7.80;;
45420;SDS011;55462;47.042;8.292;2023-04-23T01:53:26;8.77;;;7.80;;
45420;SDS011;55462;47.042;8.292;2023-04-23T01:55:51;9.60;;;8.80;;
45420;SDS011;55462;47.042;8.292;2023-04-23T01:58:18;9.25;;;8.15;;
45420;SDS011;55462;47.042;8.292;2023-04-23T02:00:43;9.05;;;8.25;;
45420;SDS011;55462;47.042;8.292;2023-04-23T02:03:09;7.63;;;6.68;;
45420;SDS011;55462;47.042;8.292;2023-04-23T02:05:35;7.70;;;6.65;;
45420;SDS011;55462;47.042;8.292;2023-04-23T02:08:01;8.15;;;5.95;;
45420;SDS011;55462;47.042;8.292;2023-04-23T02:10:27;10.10;;;6.57;;
45420;SDS011;55462;47.042;8.292;2023-04-23T02:12:53;9.20;;;5.63;;
45420;SDS011;55462;47.042;8.292;2023-04-23T02:15:18;6.55;;;6.05;;
45420;SDS011;55462;47.042;8.292;2023-04-23T02:17:45;7.38;;;6.55;;
45420;SDS011;55462;47.042;8.292;2023-04-23T02:20:10;7.45;;;6.75;;
45420;SDS011;55462;47.042;8.292;2023-04-23T02:22:36;7.95;;;7.20;;
45420;SDS011;55462;47.042;8.292;2023-04-23T02:25:03;9.63;;;8.50;;
45420;SDS011;55462;47.042;8.292;2023-04-23T02:27:29;9.30;;;8.35;;
45420;SDS011;55462;47.042;8.292;2023-04-23T02:29:54;8.70;;;7.85;;
45420;SDS011;55462;47.042;8.292;2023-04-23T02:32:20;8.98;;;7.78;;
45420;SDS011;55462;47.042;8.292;2023-04-23T02:34:46;8.70;;;7.60;;
45420;SDS011;55462;47.042;8.292;2023-04-23T02:37:11;7.75;;;7.05;;
45420;SDS011;55462;47.042;8.292;2023-04-23T02:39:36;8.18;;;7.50;;
45420;SDS011;55462;47.042;8.292;2023-04-23T02:42:05;9.70;;;8.70;;
45420;SDS011;55462;47.042;8.292;2023-04-23T02:44:30;7.95;;;7.15;;
45420;SDS011;55462;47.042;8.292;2023-04-23T02:46:56;8.80;;;8.10;;
45420;SDS011;55462;47.042;8.292;2023-04-23T02:49:21;8.75;;;8.00;;
45420;SDS011;55462;47.042;8.292;2023-04-23T02:51:46;9.55;;;8.55;;
45420;SDS011;55462;47.042;8.292;2023-04-23T02:54:12;10.00;;;8.35;;
45420;SDS011;55462;47.042;8.292;2023-04-23T02:56:38;7.93;;;7.22;;
45420;SDS011;55462;47.042;8.292;2023-04-23T02:59:03;9.75;;;8.75;;
45420;SDS011;55462;47.042;8.292;2023-04-23T03:01:28;9.38;;;8.45;;
45420;SDS011;55462;47.042;8.292;2023-04-23T03:03:54;9.82;;;8.85;;
45420;SDS011;55462;47.042;8.292;2023-04-23T03:06:19;11.00;;;8.32;;
45420;SDS011;55462;47.042;8.292;2023-04-23T03:08:45;9.05;;;8.25;;
45420;SDS011;55462;47.042;8.292;2023-04-23T03:11:10;10.18;;;8.52;;
45420;SDS011;55462;47.042;8.292;2023-04-23T03:13:35;8.63;;;7.93;;
45420;SDS011;55462;47.042;8.292;2023-04-23T03:16:01;8.60;;;7.80;;
45420;SDS011;55462;47.042;8.292;2023-04-23T03:18:26;9.13;;;8.27;;
45420;SDS011;55462;47.042;8.292;2023-04-23T03:20:51;10.13;;;9.07;;
45420;SDS011;55462;47.042;8.292;2023-04-23T03:23:17;9.43;;;8.43;;
45420;SDS011;55462;47.042;8.292;2023-04-23T03:25:42;9.85;;;8.95;;
45420;SDS011;55462;47.042;8.292;2023-04-23T03:28:07;10.25;;;9.30;;
45420;SDS011;55462;47.042;8.292;2023-04-23T03:30:33;9.35;;;8.45;;
45420;SDS011;55462;47.042;8.292;2023-04-23T03:32:58;9.90;;;9.10;;
45420;SDS011;55462;47.042;8.292;2023-04-23T03:35:25;9.52;;;8.82;;
45420;SDS011;55462;47.042;8.292;2023-04-23T03:37:50;9.50;;;8.70;;
45420;SDS011;55462;47.042;8.292;2023-04-23T03:40:16;10.15;;;9.18;;
45420;SDS011;55462;47.042;8.292;2023-04-23T03:42:41;12.18;;;9.07;;
45420;SDS011;55462;47.042;8.292;2023-04-23T03:45:07;11.23;;;10.10;;
45420;SDS011;55462;47.042;8.292;2023-04-23T03:47:32;10.10;;;9.18;;
45420;SDS011;55462;47.042;8.292;2023-04-23T03:49:58;12.18;;;10.98;;
45420;SDS011;55462;47.042;8.292;2023-04-23T03:52:23;11.00;;;9.90;;
45420;SDS011;55462;47.042;8.292;2023-04-23T03:54:48;10.48;;;9.57;;
45420;SDS011;55462;47.042;8.292;2023-04-23T03:57:14;10.98;;;9.98;;
45420;SDS011;55462;47.042;8.292;2023-04-23T03:59:40;11.60;;;10.60;;
45420;SDS011;55462;47.042;8.292;2023-04-23T04:02:05;12.38;;;11.10;;
45420;SDS011;55462;47.042;8.292;2023-04-23T04:04:31;10.48;;;9.52;;
45420;SDS011;55462;47.042;8.292;2023-04-23T04:06:57;11.43;;;10.23;;
45420;SDS011;55462;47.042;8.292;2023-04-23T04:09:24;13.63;;;10.80;;
45420;SDS011;55462;47.042;8.292;2023-04-23T04:11:49;11.13;;;10.13;;
45420;SDS011;55462;47.042;8.292;2023-04-23T04:14:15;12.70;;;11.60;;
45420;SDS011;55462;47.042;8.292;2023-04-23T04:16:40;11.68;;;10.55;;
45420;SDS011;55462;47.042;8.292;2023-04-23T04:19:05;11.23;;;10.25;;
45420;SDS011;55462;47.042;8.292;2023-04-23T04:21:32;12.23;;;10.98;;
45420;SDS011;55462;47.042;8.292;2023-04-23T04:24:00;12.07;;;10.88;;
45420;SDS011;55462;47.042;8.292;2023-04-23T04:26:27;13.23;;;10.93;;
45420;SDS011;55462;47.042;8.292;2023-04-23T04:28:52;11.98;;;10.88;;
45420;SDS011;55462;47.042;8.292;2023-04-23T04:31:18;12.88;;;10.95;;
45420;SDS011;55462;47.042;8.292;2023-04-23T04:33:46;12.57;;;11.23;;
45420;SDS011;55462;47.042;8.292;2023-04-23T04:36:11;12.48;;;11.23;;
45420;SDS011;55462;47.042;8.292;2023-04-23T04:38:37;11.27;;;10.07;;
45420;SDS011;55462;47.042;8.292;2023-04-23T04:41:03;10.50;;;9.65;;
45420;SDS011;55462;47.042;8.292;2023-04-23T04:43:29;10.32;;;9.30;;
45420;SDS011;55462;47.042;8.292;2023-04-23T04:45:55;16.58;;;11.60;;
45420;SDS011;55462;47.042;8.292;2023-04-23T04:48:22;12.32;;;10.95;;
45420;SDS011;55462;47.042;8.292;2023-04-23T04:50:48;12.18;;;10.75;;
45420;SDS011;55462;47.042;8.292;2023-04-23T04:53:13;10.82;;;9.73;;
45420;SDS011;55462;47.042;8.292;2023-04-23T04:55:39;10.00;;;9.05;;
45420;SDS011;55462;47.042;8.292;2023-04-23T04:58:04;10.23;;;9.32;;
45420;SDS011;55462;47.042;8.292;2023-04-23T05:00:30;10.45;;;9.55;;
45420;SDS011;55462;47.042;8.292;2023-04-23T05:02:56;10.75;;;9.02;;
45420;SDS011;55462;47.042;8.292;2023-04-23T05:05:22;9.77;;;8.88;;
45420;SDS011;55462;47.042;8.292;2023-04-23T05:07:48;9.18;;;8.38;;
45420;SDS011;55462;47.042;8.292;2023-04-23T05:10:14;9.75;;;8.75;;
45420;SDS011;55462;47.042;8.292;2023-04-23T05:12:39;9.50;;;8.57;;
45420;SDS011;55462;47.042;8.292;2023-04-23T05:15:06;10.07;;;9.07;;
45420;SDS011;55462;47.042;8.292;2023-04-23T05:17:33;10.30;;;9.30;;
45420;SDS011;55462;47.042;8.292;2023-04-23T05:19:59;9.75;;;8.68;;
45420;SDS011;55462;47.042;8.292;2023-04-23T05:22:25;11.20;;;9.80;;
45420;SDS011;55462;47.042;8.292;2023-04-23T05:24:51;10.32;;;9.52;;
45420;SDS011;55462;47.042;8.292;2023-04-23T05:27:16;9.82;;;8.93;;
45420;SDS011;55462;47.042;8.292;2023-04-23T05:29:42;12.90;;;10.13;;
45420;SDS011;55462;47.042;8.292;2023-04-23T05:32:07;9.60;;;8.73;;
45420;SDS011;55462;47.042;8.292;2023-04-23T05:34:33;9.65;;;8.75;;
45420;SDS011;55462;47.042;8.292;2023-04-23T05:36:58;12.45;;;8.52;;
45420;SDS011;55462;47.042;8.292;2023-04-23T05:39:23;10.15;;;9.35;;
45420;SDS011;55462;47.042;8.292;2023-04-23T05:41:49;10.27;;;9.25;;
45420;SDS011;55462;47.042;8.292;2023-04-23T05:44:14;9.55;;;8.68;;
45420;SDS011;55462;47.042;8.292;2023-04-23T05:46:39;9.50;;;8.70;;
45420;SDS011;55462;47.042;8.292;2023-04-23T05:49:04;10.38;;;9.27;;
45420;SDS011;55462;47.042;8.292;2023-04-23T05:51:30;8.95;;;8.25;;
45420;SDS011;55462;47.042;8.292;2023-04-23T05:53:55;10.82;;;9.40;;
45420;SDS011;55462;47.042;8.292;2023-04-23T05:56:21;10.05;;;9.13;;
45420;SDS011;55462;47.042;8.292;2023-04-23T05:58:46;10.23;;;9.20;;
45420;SDS011;55462;47.042;8.292;2023-04-23T06:01:11;10.73;;;9.27;;
45420;SDS011;55462;47.042;8.292;2023-04-23T06:03:37;10.43;;;9.30;;
45420;SDS011;55462;47.042;8.292;2023-04-23T06:06:02;12.05;;;10.85;;
45420;SDS011;55462;47.042;8.292;2023-04-23T06:08:27;11.65;;;10.48;;
45420;SDS011;55462;47.042;8.292;2023-04-23T06:10:53;13.70;;;11.65;;
45420;SDS011;55462;47.042;8.292;2023-04-23T06:13:20;12.13;;;10.98;;
45420;SDS011;55462;47.042;8.292;2023-04-23T06:15:45;12.30;;;11.18;;
45420;SDS011;55462;47.042;8.292;2023-04-23T06:18:11;12.00;;;10.90;;
45420;SDS011;55462;47.042;8.292;2023-04-23T06:20:36;11.70;;;10.63;;
45420;SDS011;55462;47.042;8.292;2023-04-23T06:23:01;10.98;;;9.98;;
45420;SDS011;55462;47.042;8.292;2023-04-23T06:25:27;12.18;;;10.32;;
45420;SDS011;55462;47.042;8.292;2023-04-23T06:27:53;11.95;;;10.13;;
45420;SDS011;55462;47.042;8.292;2023-04-23T06:30:18;14.40;;;10.68;;
45420;SDS011;55462;47.042;8.292;2023-04-23T06:32:43;12.05;;;10.82;;
45420;SDS011;55462;47.042;8.292;2023-04-23T06:35:09;12.15;;;11.07;;
45420;SDS011;55462;47.042;8.292;2023-04-23T06:37:34;12.23;;;11.05;;
45420;SDS011;55462;47.042;8.292;2023-04-23T06:39:59;15.27;;;13.77;;
45420;SDS011;55462;47.042;8.292;2023-04-23T06:42:25;15.07;;;13.45;;
45420;SDS011;55462;47.042;8.292;2023-04-23T06:44:50;15.00;;;13.52;;
45420;SDS011;55462;47.042;8.292;2023-04-23T06:47:15;13.02;;;11.93;;
45420;SDS011;55462;47.042;8.292;2023-04-23T06:49:41;14.45;;;12.82;;
45420;SDS011;55462;47.042;8.292;2023-04-23T06:52:06;18.15;;;13.85;;
45420;SDS011;55462;47.042;8.292;2023-04-23T06:54:31;14.75;;;13.35;;
45420;SDS011;55462;47.042;8.292;2023-04-23T06:56:57;14.05;;;12.63;;
45420;SDS011;55462;47.042;8.292;2023-04-23T06:59:22;12.95;;;11.82;;
45420;SDS011;55462;47.042;8.292;2023-04-23T07:01:47;12.63;;;11.43;;
45420;SDS011;55462;47.042;8.292;2023-04-23T07:04:13;13.38;;;12.18;;
45420;SDS011;55462;47.042;8.292;2023-04-23T07:06:38;13.18;;;11.88;;
45420;SDS011;55462;47.042;8.292;2023-04-23T07:09:03;12.93;;;11.63;;
45420;SDS011;55462;47.042;8.292;2023-04-23T07:11:29;12.48;;;11.18;;
45420;SDS011;55462;47.042;8.292;2023-04-23T07:13:55;12.45;;;11.27;;
45420;SDS011;55462;47.042;8.292;2023-04-23T07:16:22;12.30;;;10.90;;
45420;SDS011;55462;47.042;8.292;2023-04-23T07:18:48;12.32;;;10.70;;
45420;SDS011;55462;47.042;8.292;2023-04-23T07:21:13;11.48;;;10.50;;
45420;SDS011;55462;47.042;8.292;2023-04-23T07:23:39;10.93;;;9.93;;
45420;SDS011;55462;47.042;8.292;2023-04-23T07:26:04;11.05;;;9.90;;
45420;SDS011;55462;47.042;8.292;2023-04-23T07:28:29;13.10;;;9.88;;
45420;SDS011;55462;47.042;8.292;2023-04-23T07:30:55;10.40;;;9.43;;
45420;SDS011;55462;47.042;8.292;2023-04-23T07:33:20;11.98;;;9.73;;
45420;SDS011;55462;47.042;8.292;2023-04-23T07:35:45;10.90;;;9.88;;
45420;SDS011;55462;47.042;8.292;2023-04-23T07:38:11;9.35;;;8.57;;
45420;SDS011;55462;47.042;8.292;2023-04-23T07:40:36;9.80;;;8.73;;
45420;SDS011;55462;47.042;8.292;2023-04-23T07:43:02;11.15;;;9.20;;
45420;SDS011;55462;47.042;8.292;2023-04-23T07:45:27;11.75;;;8.93;;
45420;SDS011;55462;47.042;8.292;2023-04-23T07:47:52;10.48;;;9.55;;
45420;SDS011;55462;47.042;8.292;2023-04-23T07:50:18;10.02;;;9.02;;
45420;SDS011;55462;47.042;8.292;2023-04-23T07:52:43;12.68;;;9.18;;
45420;SDS011;55462;47.042;8.292;2023-04-23T07:55:08;10.23;;;9.15;;
45420;SDS011;55462;47.042;8.292;2023-04-23T07:57:33;10.05;;;9.05;;
45420;SDS011;55462;47.042;8.292;2023-04-23T07:59:59;9.93;;;9.02;;
45420;SDS011;55462;47.042;8.292;2023-04-23T08:02:24;9.73;;;8.73;;
45420;SDS011;55462;47.042;8.292;2023-04-23T08:04:51;9.88;;;8.60;;
45420;SDS011;55462;47.042;8.292;2023-04-23T08:07:17;10.98;;;8.23;;
45420;SDS011;55462;47.042;8.292;2023-04-23T08:09:42;8.35;;;7.13;;
45420;SDS011;55462;47.042;8.292;2023-04-23T08:12:08;7.95;;;7.25;;
45420;SDS011;55462;47.042;8.292;2023-04-23T08:14:33;8.77;;;6.88;;
45420;SDS011;55462;47.042;8.292;2023-04-23T08:16:58;7.28;;;5.88;;
45420;SDS011;55462;47.042;8.292;2023-04-23T08:19:23;6.63;;;5.60;;
45420;SDS011;55462;47.042;8.292;2023-04-23T08:21:49;7.75;;;5.15;;
45420;SDS011;55462;47.042;8.292;2023-04-23T08:24:16;7.78;;;5.53;;
45420;SDS011;55462;47.042;8.292;2023-04-23T08:26:41;7.80;;;5.85;;
45420;SDS011;55462;47.042;8.292;2023-04-23T08:29:07;5.85;;;5.35;;
45420;SDS011;55462;47.042;8.292;2023-04-23T08:31:32;8.75;;;5.32;;
45420;SDS011;55462;47.042;8.292;2023-04-23T08:33:57;6.50;;;5.80;;
45420;SDS011;55462;47.042;8.292;2023-04-23T08:36:23;7.88;;;5.35;;
45420;SDS011;55462;47.042;8.292;2023-04-23T08:38:49;5.65;;;5.15;;
45420;SDS011;55462;47.042;8.292;2023-04-23T08:41:14;6.55;;;5.47;;
45420;SDS011;55462;47.042;8.292;2023-04-23T08:43:46;5.75;;;5.15;;
45420;SDS011;55462;47.042;8.292;2023-04-23T08:46:36;4.53;;;4.13;;
45420;SDS011;55462;47.042;8.292;2023-04-23T08:49:02;5.97;;;3.80;;
45420;SDS011;55462;47.042;8.292;2023-04-23T08:51:28;5.40;;;3.05;;
45420;SDS011;55462;47.042;8.292;2023-04-23T08:53:55;5.47;;;3.72;;
45420;SDS011;55462;47.042;8.292;2023-04-23T08:56:22;4.30;;;3.97;;
45420;SDS011;55462;47.042;8.292;2023-04-23T08:58:48;6.07;;;4.38;;
45420;SDS011;55462;47.042;8.292;2023-04-23T09:01:14;6.07;;;5.47;;
45420;SDS011;55462;47.042;8.292;2023-04-23T09:03:40;6.20;;;4.70;;
45420;SDS011;55462;47.042;8.292;2023-04-23T09:06:06;5.00;;;4.60;;
45420;SDS011;55462;47.042;8.292;2023-04-23T09:08:32;8.10;;;4.80;;
45420;SDS011;55462;47.042;8.292;2023-04-23T09:10:59;8.50;;;4.20;;
45420;SDS011;55462;47.042;8.292;2023-04-23T09:13:24;3.75;;;3.45;;
45420;SDS011;55462;47.042;8.292;2023-04-23T09:15:50;5.32;;;4.05;;
45420;SDS011;55462;47.042;8.292;2023-04-23T09:18:15;5.82;;;3.70;;
45420;SDS011;55462;47.042;8.292;2023-04-23T09:20:41;6.47;;;4.32;;
45420;SDS011;55462;47.042;8.292;2023-04-23T09:23:08;4.10;;;3.72;;
45420;SDS011;55462;47.042;8.292;2023-04-23T09:25:34;3.00;;;2.70;;
45420;SDS011;55462;47.042;8.292;2023-04-23T09:28:00;3.92;;;2.80;;
45420;SDS011;55462;47.042;8.292;2023-04-23T09:30:25;3.15;;;2.33;;
45420;SDS011;55462;47.042;8.292;2023-04-23T09:32:51;3.10;;;2.33;;
45420;SDS011;55462;47.042;8.292;2023-04-23T09:35:17;2.42;;;2.30;;
45420;SDS011;55462;47.042;8.292;2023-04-23T09:37:50;3.05;;;2.85;;
45420;SDS011;55462;47.042;8.292;2023-04-23T09:40:17;3.60;;;3.30;;
45420;SDS011;55462;47.042;8.292;2023-04-23T09:42:48;4.45;;;3.00;;
45420;SDS011;55462;47.042;8.292;2023-04-23T09:45:14;2.97;;;2.72;;
45420;SDS011;55462;47.042;8.292;2023-04-23T09:47:49;4.38;;;3.38;;
45420;SDS011;55462;47.042;8.292;2023-04-23T09:50:16;3.70;;;3.13;;
45420;SDS011;55462;47.042;8.292;2023-04-23T09:52:42;4.40;;;3.53;;
45420;SDS011;55462;47.042;8.292;2023-04-23T09:55:07;4.40;;;4.07;;
45420;SDS011;55462;47.042;8.292;2023-04-23T09:57:36;4.15;;;2.83;;
45420;SDS011;55462;47.042;8.292;2023-04-23T10:00:12;3.03;;;2.83;;
45420;SDS011;55462;47.042;8.292;2023-04-23T10:02:44;4.10;;;2.80;;
45420;SDS011;55462;47.042;8.292;2023-04-23T10:05:15;3.03;;;2.55;;
45420;SDS011;55462;47.042;8.292;2023-04-23T10:07:41;3.47;;;3.17;;
45420;SDS011;55462;47.042;8.292;2023-04-23T10:10:09;3.17;;;2.80;;
45420;SDS011;55462;47.042;8.292;2023-04-23T10:12:35;3.33;;;2.80;;
45420;SDS011;55462;47.042;8.292;2023-04-23T10:15:01;2.88;;;2.55;;
45420;SDS011;55462;47.042;8.292;2023-04-23T10:17:28;2.47;;;2.20;;
45420;SDS011;55462;47.042;8.292;2023-04-23T10:19:54;2.67;;;2.45;;
45420;SDS011;55462;47.042;8.292;2023-04-23T10:22:19;2.92;;;2.63;;
45420;SDS011;55462;47.042;8.292;2023-04-23T10:24:45;3.70;;;2.70;;
45420;SDS011;55462;47.042;8.292;2023-04-23T10:27:15;4.25;;;2.65;;
45420;SDS011;55462;47.042;8.292;2023-04-23T10:29:41;3.97;;;3.50;;
45420;SDS011;55462;47.042;8.292;2023-04-23T10:32:08;3.33;;;3.03;;
45420;SDS011;55462;47.042;8.292;2023-04-23T10:34:34;3.72;;;3.17;;
45420;SDS011;55462;47.042;8.292;2023-04-23T10:37:00;5.28;;;3.58;;
45420;SDS011;55462;47.042;8.292;2023-04-23T10:39:26;7.13;;;3.25;;
45420;SDS011;55462;47.042;8.292;2023-04-23T10:41:54;2.70;;;2.50;;
45420;SDS011;55462;47.042;8.292;2023-04-23T10:44:19;3.30;;;3.00;;
45420;SDS011;55462;47.042;8.292;2023-04-23T10:46:52;3.40;;;3.10;;
45420;SDS011;55462;47.042;8.292;2023-04-23T10:49:18;4.60;;;3.47;;
45420;SDS011;55462;47.042;8.292;2023-04-23T10:51:46;3.63;;;3.33;;
45420;SDS011;55462;47.042;8.292;2023-04-23T10:54:15;3.58;;;3.28;;
45420;SDS011;55462;47.042;8.292;2023-04-23T10:56:41;2.90;;;2.70;;
45420;SDS011;55462;47.042;8.292;2023-04-23T10:59:07;4.10;;;3.10;;
45420;SDS011;55462;47.042;8.292;2023-04-23T11:01:42;3.30;;;3.00;;
45420;SDS011;55462;47.042;8.292;2023-04-23T11:04:23;4.40;;;3.38;;
45420;SDS011;55462;47.042;8.292;2023-04-23T11:06:49;4.43;;;3.40;;
45420;SDS011;55462;47.042;8.292;2023-04-23T11:09:29;4.55;;;4.20;;
45420;SDS011;55462;47.042;8.292;2023-04-23T11:11:54;4.00;;;3.70;;
45420;SDS011;55462;47.042;8.292;2023-04-23T11:14:31;4.60;;;3.80;;
45420;SDS011;55462;47.042;8.292;2023-04-23T11:17:22;3.95;;;3.65;;
45420;SDS011;55462;47.042;8.292;2023-04-23T11:20:27;4.45;;;4.03;;
45420;SDS011;55462;47.042;8.292;2023-04-23T11:22:46;4.05;;;3.30;;
45420;SDS011;55462;47.042;8.292;2023-04-23T11:25:22;4.20;;;3.58;;
45420;SDS011;55462;47.042;8.292;2023-04-23T11:27:50;3.92;;;3.53;;
45420;SDS011;55462;47.042;8.292;2023-04-23T11:30:18;3.83;;;3.53;;
45420;SDS011;55462;47.042;8.292;2023-04-23T11:32:45;4.80;;;3.63;;
45420;SDS011;55462;47.042;8.292;2023-04-23T11:35:14;4.25;;;3.33;;
45420;SDS011;55462;47.042;8.292;2023-04-23T11:37:41;4.10;;;3.80;;
45420;SDS011;55462;47.042;8.292;2023-04-23T11:40:07;5.75;;;3.67;;
45420;SDS011;55462;47.042;8.292;2023-04-23T11:43:07;4.30;;;3.90;;
45420;SDS011;55462;47.042;8.292;2023-04-23T11:45:28;4.40;;;4.00;;
45420;SDS011;55462;47.042;8.292;2023-04-23T11:47:54;3.65;;;3.35;;
45420;SDS011;55462;47.042;8.292;2023-04-23T11:50:21;3.95;;;3.65;;
45420;SDS011;55462;47.042;8.292;2023-04-23T11:52:48;4.78;;;3.50;;
45420;SDS011;55462;47.042;8.292;2023-04-23T11:55:14;4.82;;;3.35;;
45420;SDS011;55462;47.042;8.292;2023-04-23T11:57:47;3.85;;;3.30;;
45420;SDS011;55462;47.042;8.292;2023-04-23T12:00:17;3.50;;;3.20;;
45420;SDS011;55462;47.042;8.292;2023-04-23T12:05:43;4.53;;;3.47;;
45420;SDS011;55462;47.042;8.292;2023-04-23T12:08:09;4.38;;;3.97;;
45420;SDS011;55462;47.042;8.292;2023-04-23T12:10:40;4.18;;;3.60;;
45420;SDS011;55462;47.042;8.292;2023-04-23T12:13:11;3.95;;;3.53;;
45420;SDS011;55462;47.042;8.292;2023-04-23T12:15:47;3.40;;;3.20;;
45420;SDS011;55462;47.042;8.292;2023-04-23T12:18:14;4.53;;;3.40;;
45420;SDS011;55462;47.042;8.292;2023-04-23T12:20:40;3.65;;;3.35;;
45420;SDS011;55462;47.042;8.292;2023-04-23T12:23:06;3.75;;;3.30;;
45420;SDS011;55462;47.042;8.292;2023-04-23T12:25:32;3.28;;;3.05;;
45420;SDS011;55462;47.042;8.292;2023-04-23T12:27:58;3.65;;;2.60;;
45420;SDS011;55462;47.042;8.292;2023-04-23T12:30:27;3.40;;;2.85;;
45420;SDS011;55462;47.042;8.292;2023-04-23T12:32:58;3.25;;;2.95;;
45420;SDS011;55462;47.042;8.292;2023-04-23T12:35:42;3.30;;;3.10;;
45420;SDS011;55462;47.042;8.292;2023-04-23T12:38:22;4.63;;;3.88;;
45420;SDS011;55462;47.042;8.292;2023-04-23T12:40:48;3.45;;;3.20;;
45420;SDS011;55462;47.042;8.292;2023-04-23T12:43:14;4.65;;;3.50;;
45420;SDS011;55462;47.042;8.292;2023-04-23T12:45:39;4.97;;;3.63;;
45420;SDS011;55462;47.042;8.292;2023-04-23T12:48:05;6.85;;;4.35;;
45420;SDS011;55462;47.042;8.292;2023-04-23T12:50:30;6.45;;;4.63;;
45420;SDS011;55462;47.042;8.292;2023-04-23T12:52:55;4.53;;;3.92;;
45420;SDS011;55462;47.042;8.292;2023-04-23T12:55:21;5.68;;;4.32;;
45420;SDS011;55462;47.042;8.292;2023-04-23T12:57:46;5.22;;;4.00;;
45420;SDS011;55462;47.042;8.292;2023-04-23T13:00:11;5.03;;;4.25;;
45420;SDS011;55462;47.042;8.292;2023-04-23T13:02:37;4.30;;;4.00;;
45420;SDS011;55462;47.042;8.292;2023-04-23T13:05:02;4.70;;;4.30;;
45420;SDS011;55462;47.042;8.292;2023-04-23T13:07:28;5.43;;;3.65;;
45420;SDS011;55462;47.042;8.292;2023-04-23T13:09:53;4.68;;;4.28;;
45420;SDS011;55462;47.042;8.292;2023-04-23T13:12:18;4.07;;;3.78;;
45420;SDS011;55462;47.042;8.292;2023-04-23T13:14:44;4.63;;;4.22;;
45420;SDS011;55462;47.042;8.292;2023-04-23T13:17:09;4.75;;;4.35;;
45420;SDS011;55462;47.042;8.292;2023-04-23T13:19:34;4.35;;;4.05;;
45420;SDS011;55462;47.042;8.292;2023-04-23T13:22:02;5.38;;;4.68;;
45420;SDS011;55462;47.042;8.292;2023-04-23T13:24:28;5.38;;;4.68;;
45420;SDS011;55462;47.042;8.292;2023-04-23T13:26:54;5.15;;;4.75;;
45420;SDS011;55462;47.042;8.292;2023-04-23T13:29:20;5.85;;;4.70;;
45420;SDS011;55462;47.042;8.292;2023-04-23T13:31:45;6.22;;;4.63;;
45420;SDS011;55462;47.042;8.292;2023-04-23T13:34:10;6.57;;;4.78;;
45420;SDS011;55462;47.042;8.292;2023-04-23T13:36:36;4.30;;;4.00;;
45420;SDS011;55462;47.042;8.292;2023-04-23T13:39:01;4.82;;;4.53;;
45420;SDS011;55462;47.042;8.292;2023-04-23T13:41:26;4.63;;;4.22;;
45420;SDS011;55462;47.042;8.292;2023-04-23T13:43:52;4.20;;;3.88;;
45420;SDS011;55462;47.042;8.292;2023-04-23T13:46:18;4.38;;;4.05;;
45420;SDS011;55462;47.042;8.292;2023-04-23T13:48:43;4.43;;;4.03;;
45420;SDS011;55462;47.042;8.292;2023-04-23T13:51:08;3.75;;;3.50;;
45420;SDS011;55462;47.042;8.292;2023-04-23T13:53:34;4.63;;;4.10;;
45420;SDS011;55462;47.042;8.292;2023-04-23T13:55:59;4.43;;;4.10;;
45420;SDS011;55462;47.042;8.292;2023-04-23T13:58:24;4.40;;;4.00;;
45420;SDS011;55462;47.042;8.292;2023-04-23T14:00:50;4.13;;;3.83;;
45420;SDS011;55462;47.042;8.292;2023-04-23T14:03:16;3.83;;;3.55;;
45420;SDS011;55462;47.042;8.292;2023-04-23T14:05:42;4.00;;;3.70;;
45420;SDS011;55462;47.042;8.292;2023-04-23T14:08:07;4.47;;;4.07;;
45420;SDS011;55462;47.042;8.292;2023-04-23T14:10:33;4.13;;;3.65;;
45420;SDS011;55462;47.042;8.292;2023-04-23T14:12:58;4.30;;;3.95;;
45420;SDS011;55462;47.042;8.292;2023-04-23T14:15:24;4.28;;;3.97;;
45420;SDS011;55462;47.042;8.292;2023-04-23T14:17:49;4.40;;;4.10;;
45420;SDS011;55462;47.042;8.292;2023-04-23T14:20:14;4.15;;;3.85;;
45420;SDS011;55462;47.042;8.292;2023-04-23T14:22:40;4.00;;;3.50;;
45420;SDS011;55462;47.042;8.292;2023-04-23T14:25:07;4.85;;;4.55;;
45420;SDS011;55462;47.042;8.292;2023-04-23T14:27:43;5.85;;;5.05;;
45420;SDS011;55462;47.042;8.292;2023-04-23T14:30:13;6.55;;;5.95;;
45420;SDS011;55462;47.042;8.292;2023-04-23T14:32:44;7.53;;;6.72;;
45420;SDS011;55462;47.042;8.292;2023-04-23T14:35:13;11.02;;;5.70;;
45420;SDS011;55462;47.042;8.292;2023-04-23T14:37:39;3.60;;;3.28;;
45420;SDS011;55462;47.042;8.292;2023-04-23T14:40:09;2.78;;;2.45;;